Time;durP1;ratioP1;P1;durP2;ratioP2;P2;SDS_P1;SDS_P2;PMS_P1;PMS_P2;Temp;Humidity;BMP_temperature;BMP_pressure;BME280_temperature;BME280_humidity;BME280_pressure;Samples;Min_cycle;Max_cycle;Signal;HPM_P1;HPM_P2
2023/07/30 00:01:37;;;;;;;42.90;40.60;;;;;;;;;;5076279;28;20067;-73
2023/07/30 00:04:03;;;;;;;42.95;40.72;;;;;;;;;;5075946;28;20024;-73
2023/07/30 00:06:28;;;;;;;43.00;40.80;;;;;;;;;;5076287;28;20036;-72
2023/07/30 00:08:53;;;;;;;42.22;40.08;;;;;;;;;;5076079;28;20436;-73
2023/07/30 00:11:19;;;;;;;40.65;38.35;;;;;;;;;;5074251;28;20042;-73
2023/07/30 00:13:44;;;;;;;36.03;34.17;;;;;;;;;;5074060;28;20044;-73
2023/07/30 00:16:09;;;;;;;36.00;34.10;;;;;;;;;;5074905;28;20044;-73
2023/07/30 00:18:35;;;;;;;36.25;34.40;;;;;;;;;;5076927;28;20020;-73
2023/07/30 00:21:00;;;;;;;37.80;35.88;;;;;;;;;;5077676;28;22545;-73
2023/07/30 00:23:25;;;;;;;34.03;32.25;;;;;;;;;;5077123;28;20036;-74
2023/07/30 00:25:51;;;;;;;32.15;30.48;;;;;;;;;;5075074;28;20221;-74
2023/07/30 00:28:16;;;;;;;34.40;32.63;;;;;;;;;;5074225;28;20064;-74
2023/07/30 00:30:41;;;;;;;33.00;31.30;;;;;;;;;;5076249;28;20044;-74
2023/07/30 00:33:07;;;;;;;38.38;36.42;;;;;;;;;;5077417;28;20128;-73
2023/07/30 00:35:32;;;;;;;37.45;35.47;;;;;;;;;;5075934;28;20067;-73
2023/07/30 00:37:57;;;;;;;36.17;34.30;;;;;;;;;;5076199;28;20028;-73
2023/07/30 00:40:23;;;;;;;35.80;33.83;;;;;;;;;;5076351;28;20036;-73
2023/07/30 00:42:48;;;;;;;36.15;34.28;;;;;;;;;;5076933;28;20059;-73
2023/07/30 00:45:14;;;;;;;36.30;34.40;;;;;;;;;;5076454;28;20097;-73
2023/07/30 00:47:40;;;;;;;37.80;35.85;;;;;;;;;;5080488;28;20550;-73
2023/07/30 00:50:07;;;;;;;36.40;34.50;;;;;;;;;;5072828;28;20040;-74
2023/07/30 00:52:33;;;;;;;35.25;33.42;;;;;;;;;;5071864;28;20040;-73
2023/07/30 00:55:02;;;;;;;33.78;32.03;;;;;;;;;;5077141;28;20522;-73
2023/07/30 00:57:27;;;;;;;30.70;29.10;;;;;;;;;;5077900;28;20040;-73
2023/07/30 00:59:53;;;;;;;29.98;28.38;;;;;;;;;;5079392;28;20044;-73
2023/07/30 01:02:19;;;;;;;30.65;29.08;;;;;;;;;;5078579;28;20036;-73
2023/07/30 01:04:44;;;;;;;31.65;30.00;;;;;;;;;;5079856;28;20032;-74
2023/07/30 01:07:09;;;;;;;27.05;25.60;;;;;;;;;;5079310;28;20032;-73
2023/07/30 01:09:35;;;;;;;28.77;27.17;;;;;;;;;;5078685;28;20028;-74
2023/07/30 01:12:02;;;;;;;29.30;27.70;;;;;;;;;;5077328;28;20423;-74
2023/07/30 01:14:29;;;;;;;26.15;24.77;;;;;;;;;;5080396;28;20123;-74
2023/07/30 01:16:54;;;;;;;26.60;25.17;;;;;;;;;;5079609;28;20028;-75
2023/07/30 01:19:19;;;;;;;29.75;28.15;;;;;;;;;;5076631;28;20450;-74
2023/07/30 01:21:45;;;;;;;26.75;25.33;;;;;;;;;;5078962;28;20032;-75
2023/07/30 01:24:10;;;;;;;26.45;25.05;;;;;;;;;;5080448;28;20040;-74
2023/07/30 01:26:46;;;;;;;26.83;25.42;;;;;;;;;;5077895;28;20029;-75
2023/07/30 01:29:15;;;;;;;26.23;24.83;;;;;;;;;;5078155;28;20051;-75
2023/07/30 01:31:43;;;;;;;27.60;26.10;;;;;;;;;;5079518;28;20638;-76
2023/07/30 01:34:10;;;;;;;24.73;23.42;;;;;;;;;;5075213;28;20317;-75
2023/07/30 01:36:37;;;;;;;24.65;23.35;;;;;;;;;;5077889;28;20474;-76
2023/07/30 01:39:03;;;;;;;26.55;25.15;;;;;;;;;;5076107;28;20048;-76
2023/07/30 01:41:29;;;;;;;23.13;21.88;;;;;;;;;;5075057;28;20473;-75
2023/07/30 01:43:54;;;;;;;23.45;22.10;;;;;;;;;;5076849;28;20033;-75
2023/07/30 01:46:19;;;;;;;23.98;22.70;;;;;;;;;;5079685;28;20417;-75
2023/07/30 01:48:44;;;;;;;23.50;22.25;;;;;;;;;;5078032;28;20025;-75
2023/07/30 01:51:10;;;;;;;25.50;24.05;;;;;;;;;;5073131;28;20278;-74
2023/07/30 01:53:35;;;;;;;24.70;23.38;;;;;;;;;;5079643;28;20193;-74
2023/07/30 01:56:00;;;;;;;22.73;21.42;;;;;;;;;;5075731;28;20035;-76
2023/07/30 01:58:26;;;;;;;24.13;22.83;;;;;;;;;;5077689;28;20028;-76
2023/07/30 02:00:51;;;;;;;23.80;22.38;;;;;;;;;;5075450;28;20094;-76
2023/07/30 02:03:16;;;;;;;26.10;24.73;;;;;;;;;;5078818;28;20075;-74
2023/07/30 02:05:42;;;;;;;24.58;23.27;;;;;;;;;;5078396;28;20063;-76
2023/07/30 02:08:07;;;;;;;24.05;22.75;;;;;;;;;;5076523;28;20032;-75
2023/07/30 02:10:33;;;;;;;24.75;23.42;;;;;;;;;;5078139;28;20111;-74
2023/07/30 02:12:59;;;;;;;24.77;23.48;;;;;;;;;;5079319;28;20374;-75
2023/07/30 02:15:24;;;;;;;24.77;23.45;;;;;;;;;;5075059;28;20036;-75
2023/07/30 02:17:49;;;;;;;25.83;24.45;;;;;;;;;;5079145;28;20036;-76
2023/07/30 02:20:15;;;;;;;24.83;23.50;;;;;;;;;;5075509;28;20044;-76
2023/07/30 02:22:40;;;;;;;23.58;22.33;;;;;;;;;;5081488;28;20132;-76
2023/07/30 02:25:06;;;;;;;25.85;24.45;;;;;;;;;;5078796;28;20035;-76
2023/07/30 02:27:31;;;;;;;27.33;25.85;;;;;;;;;;5076911;28;20047;-76
2023/07/30 02:29:57;;;;;;;25.30;23.90;;;;;;;;;;5075452;28;20283;-76
2023/07/30 02:32:22;;;;;;;24.75;23.42;;;;;;;;;;5074396;28;20440;-76
2023/07/30 02:34:47;;;;;;;23.75;22.50;;;;;;;;;;5074142;28;20419;-75
2023/07/30 02:37:13;;;;;;;24.80;23.48;;;;;;;;;;5074119;28;20066;-75
2023/07/30 02:39:38;;;;;;;27.38;25.92;;;;;;;;;;5077993;28;20131;-77
2023/07/30 02:42:04;;;;;;;33.35;31.63;;;;;;;;;;5078472;28;20116;-75
2023/07/30 02:44:29;;;;;;;42.15;40.03;;;;;;;;;;5077622;28;20036;-74
2023/07/30 02:46:54;;;;;;;39.03;37.03;;;;;;;;;;5075810;28;20055;-74
2023/07/30 02:49:20;;;;;;;34.33;32.50;;;;;;;;;;5074417;28;20036;-74
2023/07/30 02:51:48;;;;;;;37.08;35.17;;;;;;;;;;5076798;28;20066;-74
2023/07/30 02:54:14;;;;;;;32.60;30.92;;;;;;;;;;5079784;28;20339;-75
2023/07/30 02:56:39;;;;;;;32.28;30.60;;;;;;;;;;5075166;28;20032;-75
2023/07/30 02:59:04;;;;;;;33.47;31.73;;;;;;;;;;5077619;28;20036;-76
2023/07/30 03:01:30;;;;;;;30.38;28.75;;;;;;;;;;5076704;28;20232;-76
2023/07/30 03:03:55;;;;;;;29.60;28.02;;;;;;;;;;5075311;28;20036;-75
2023/07/30 03:06:20;;;;;;;29.23;27.67;;;;;;;;;;5077132;28;20039;-76
2023/07/30 03:08:46;;;;;;;31.70;30.00;;;;;;;;;;5077779;28;20036;-75
2023/07/30 03:11:13;;;;;;;33.22;31.52;;;;;;;;;;5076706;28;20045;-76
2023/07/30 03:13:38;;;;;;;29.35;27.83;;;;;;;;;;5077181;28;20461;-76
2023/07/30 03:16:03;;;;;;;32.95;31.23;;;;;;;;;;5074683;28;20079;-75
2023/07/30 03:18:29;;;;;;;36.72;34.83;;;;;;;;;;5072406;28;20035;-75
2023/07/30 03:21:01;;;;;;;32.03;30.33;;;;;;;;;;5075143;28;20029;-76
2023/07/30 03:23:27;;;;;;;27.83;26.23;;;;;;;;;;5074979;28;20032;-70
2023/07/30 03:25:52;;;;;;;27.25;25.80;;;;;;;;;;5076811;28;20536;-71
2023/07/30 03:28:17;;;;;;;32.03;30.38;;;;;;;;;;5071526;28;20476;-70
2023/07/30 03:30:43;;;;;;;30.55;28.98;;;;;;;;;;5074793;28;20077;-70
2023/07/30 03:33:08;;;;;;;33.75;32.00;;;;;;;;;;5077322;28;20489;-71
2023/07/30 03:35:33;;;;;;;30.83;29.23;;;;;;;;;;5074476;28;20032;-70
2023/07/30 03:37:59;;;;;;;31.77;30.13;;;;;;;;;;5079537;28;20028;-71
2023/07/30 03:40:24;;;;;;;30.70;29.10;;;;;;;;;;5077322;28;20577;-71
2023/07/30 03:42:49;;;;;;;33.55;31.80;;;;;;;;;;5078261;28;20103;-71
2023/07/30 03:45:15;;;;;;;32.20;30.50;;;;;;;;;;5074466;28;20036;-72
2023/07/30 03:47:40;;;;;;;32.83;31.15;;;;;;;;;;5075795;28;20463;-71
2023/07/30 03:50:06;;;;;;;30.70;29.10;;;;;;;;;;5076784;28;20043;-70
2023/07/30 03:52:31;;;;;;;31.45;29.80;;;;;;;;;;5075520;28;20032;-70
2023/07/30 03:54:57;;;;;;;33.63;31.90;;;;;;;;;;5075512;28;20356;-71
2023/07/30 03:57:22;;;;;;;32.20;30.48;;;;;;;;;;5072344;28;20040;-70
2023/07/30 03:59:47;;;;;;;27.83;26.38;;;;;;;;;;5077495;28;20067;-71
2023/07/30 04:02:15;;;;;;;34.92;33.13;;;;;;;;;;5075307;28;20025;-71
2023/07/30 04:04:43;;;;;;;39.45;37.42;;;;;;;;;;5063722;28;20059;-70
2023/07/30 04:07:08;;;;;;;43.40;41.20;;;;;;;;;;5074138;28;20119;-70
2023/07/30 04:09:34;;;;;;;32.88;31.00;;;;;;;;;;5073831;28;20327;-71
2023/07/30 04:11:59;;;;;;;37.50;35.60;;;;;;;;;;5074858;28;20327;-70
2023/07/30 04:14:24;;;;;;;32.50;30.80;;;;;;;;;;5070924;28;20024;-70
2023/07/30 04:16:50;;;;;;;36.63;34.75;;;;;;;;;;5074697;28;20417;-70
2023/07/30 04:19:15;;;;;;;33.50;31.45;;;;;;;;;;5072805;28;20361;-70
2023/07/30 04:21:41;;;;;;;34.97;33.17;;;;;;;;;;5078055;28;20131;-70
2023/07/30 04:24:06;;;;;;;40.53;38.40;;;;;;;;;;5078424;28;20032;-70
2023/07/30 04:26:31;;;;;;;32.92;31.13;;;;;;;;;;5077180;28;20040;-69
2023/07/30 04:28:57;;;;;;;37.85;35.88;;;;;;;;;;5079800;28;20040;-70
2023/07/30 04:31:22;;;;;;;45.88;43.55;;;;;;;;;;5078995;28;20040;-70
2023/07/30 04:33:47;;;;;;;45.30;43.00;;;;;;;;;;5083330;28;20028;-70
2023/07/30 04:36:13;;;;;;;37.13;35.22;;;;;;;;;;5077599;28;20040;-70
2023/07/30 04:38:38;;;;;;;32.20;30.52;;;;;;;;;;5080094;28;20035;-70
2023/07/30 04:41:04;;;;;;;32.85;31.13;;;;;;;;;;5078889;28;20498;-69
2023/07/30 04:43:29;;;;;;;28.25;26.77;;;;;;;;;;5075471;28;20052;-69
2023/07/30 04:45:55;;;;;;;25.58;24.23;;;;;;;;;;5080925;28;20170;-69
2023/07/30 04:48:20;;;;;;;26.67;25.17;;;;;;;;;;5078842;28;20033;-69
2023/07/30 04:50:45;;;;;;;30.55;28.98;;;;;;;;;;5076115;28;20032;-69
2023/07/30 04:53:11;;;;;;;24.13;22.85;;;;;;;;;;5080204;28;20043;-69
2023/07/30 04:55:36;;;;;;;25.30;23.92;;;;;;;;;;5081009;28;20029;-69
2023/07/30 04:58:03;;;;;;;28.02;26.52;;;;;;;;;;5079031;28;20020;-69
2023/07/30 05:00:28;;;;;;;27.05;25.60;;;;;;;;;;5074258;28;20051;-69
2023/07/30 05:02:54;;;;;;;27.08;25.63;;;;;;;;;;5081324;28;20445;-69
2023/07/30 05:05:19;;;;;;;26.98;25.55;;;;;;;;;;5076067;28;20118;-69
2023/07/30 05:07:44;;;;;;;26.38;25.00;;;;;;;;;;5077832;28;20036;-69
2023/07/30 05:10:10;;;;;;;29.02;27.50;;;;;;;;;;5078642;28;20572;-69
2023/07/30 05:12:36;;;;;;;26.90;25.48;;;;;;;;;;5077327;28;20563;-69
2023/07/30 05:15:03;;;;;;;28.15;26.65;;;;;;;;;;5078349;28;20410;-69
2023/07/30 05:17:28;;;;;;;29.58;28.00;;;;;;;;;;5080098;28;20039;-69
2023/07/30 05:19:53;;;;;;;26.88;25.45;;;;;;;;;;5078458;28;20446;-69
2023/07/30 05:22:19;;;;;;;28.15;26.67;;;;;;;;;;5075240;28;20032;-69
2023/07/30 05:24:44;;;;;;;29.17;27.63;;;;;;;;;;5077831;28;20047;-69
2023/07/30 05:27:10;;;;;;;29.25;27.70;;;;;;;;;;5079227;28;20036;-69
2023/07/30 05:29:35;;;;;;;28.55;27.05;;;;;;;;;;5077032;28;20038;-69
2023/07/30 05:32:00;;;;;;;29.13;27.63;;;;;;;;;;5076980;28;20024;-69
2023/07/30 05:34:26;;;;;;;31.17;29.50;;;;;;;;;;5075883;28;20068;-69
2023/07/30 05:36:51;;;;;;;31.88;30.17;;;;;;;;;;5074788;28;20094;-69
2023/07/30 05:39:17;;;;;;;33.88;32.10;;;;;;;;;;5075359;28;20362;-69
2023/07/30 05:41:42;;;;;;;35.20;33.28;;;;;;;;;;5075911;28;20036;-69
2023/07/30 05:44:07;;;;;;;39.10;37.10;;;;;;;;;;5076947;28;20067;-68
2023/07/30 05:46:33;;;;;;;40.50;38.38;;;;;;;;;;5077405;28;20462;-69
2023/07/30 05:48:58;;;;;;;41.95;39.83;;;;;;;;;;5079108;28;20040;-68
2023/07/30 05:51:23;;;;;;;42.17;40.03;;;;;;;;;;5083478;28;20036;-69
2023/07/30 05:53:49;;;;;;;38.13;36.17;;;;;;;;;;5078903;28;20032;-69
2023/07/30 05:56:18;;;;;;;43.30;41.05;;;;;;;;;;5075417;28;20031;-69
2023/07/30 05:58:43;;;;;;;45.78;43.38;;;;;;;;;;5077794;28;20393;-68
2023/07/30 06:01:09;;;;;;;47.60;45.20;;;;;;;;;;5075996;28;20035;-69
2023/07/30 06:03:34;;;;;;;50.90;48.17;;;;;;;;;;5074565;28;20032;-68
2023/07/30 06:06:01;;;;;;;53.13;50.47;;;;;;;;;;5074969;28;20035;-69
2023/07/30 06:08:26;;;;;;;61.80;58.70;;;;;;;;;;5077294;28;20554;-69
2023/07/30 06:10:52;;;;;;;69.72;66.20;;;;;;;;;;5076441;28;20044;-69
2023/07/30 06:13:17;;;;;;;67.00;63.65;;;;;;;;;;5075131;28;20028;-69
2023/07/30 06:15:42;;;;;;;62.58;59.42;;;;;;;;;;5078488;28;20021;-69
2023/07/30 06:18:08;;;;;;;68.85;65.43;;;;;;;;;;5073742;28;20395;-69
2023/07/30 06:20:33;;;;;;;73.20;69.55;;;;;;;;;;5074554;28;20047;-69
2023/07/30 06:22:59;;;;;;;70.50;66.82;;;;;;;;;;5078503;28;20172;-69
2023/07/30 06:25:24;;;;;;;78.70;74.72;;;;;;;;;;5078306;28;20033;-69
2023/07/30 06:27:49;;;;;;;83.03;78.95;;;;;;;;;;5074185;28;20044;-69
2023/07/30 06:30:15;;;;;;;125.55;119.35;;;;;;;;;;5079361;28;20059;-69
2023/07/30 06:32:40;;;;;;;77.72;73.88;;;;;;;;;;5074094;28;20060;-70
2023/07/30 06:35:06;;;;;;;85.13;80.93;;;;;;;;;;5072979;28;20036;-69
2023/07/30 06:37:32;;;;;;;86.50;82.25;;;;;;;;;;5075628;28;20115;-68
2023/07/30 06:39:58;;;;;;;90.82;86.35;;;;;;;;;;5079217;28;20036;-68
2023/07/30 06:42:23;;;;;;;89.78;85.32;;;;;;;;;;5073844;28;20044;-68
2023/07/30 06:44:48;;;;;;;103.47;98.30;;;;;;;;;;5075790;28;20114;-68
2023/07/30 06:47:15;;;;;;;103.80;98.70;;;;;;;;;;5075025;28;20049;-69
2023/07/30 06:49:40;;;;;;;110.40;104.95;;;;;;;;;;5076198;28;20123;-69
2023/07/30 06:52:06;;;;;;;125.80;119.55;;;;;;;;;;5075871;28;20089;-68
2023/07/30 06:54:31;;;;;;;116.40;110.70;;;;;;;;;;5078010;28;20032;-68
2023/07/30 06:56:56;;;;;;;125.20;119.05;;;;;;;;;;5070735;28;20410;-68
2023/07/30 06:59:22;;;;;;;153.15;145.70;;;;;;;;;;5076244;28;20139;-68
2023/07/30 07:01:47;;;;;;;154.73;147.10;;;;;;;;;;5083065;28;20039;-68
2023/07/30 07:04:12;;;;;;;145.88;138.73;;;;;;;;;;5075519;28;20046;-68
2023/07/30 07:06:38;;;;;;;158.25;150.50;;;;;;;;;;5075124;28;20078;-68
2023/07/30 07:09:03;;;;;;;155.10;147.48;;;;;;;;;;5076136;28;20029;-68
2023/07/30 07:11:28;;;;;;;157.40;149.70;;;;;;;;;;5073348;28;20043;-68
2023/07/30 07:13:54;;;;;;;172.63;164.27;;;;;;;;;;5074768;28;20047;-68
2023/07/30 07:16:19;;;;;;;149.73;142.43;;;;;;;;;;5074651;28;20466;-68
2023/07/30 07:18:45;;;;;;;150.80;143.43;;;;;;;;;;5071206;28;20039;-68
2023/07/30 07:21:11;;;;;;;141.00;133.93;;;;;;;;;;5074937;28;20350;-68
2023/07/30 07:23:36;;;;;;;157.32;149.65;;;;;;;;;;5076234;28;20036;-68
2023/07/30 07:26:01;;;;;;;140.70;133.77;;;;;;;;;;5077904;28;20024;-68
2023/07/30 07:28:26;;;;;;;132.30;125.82;;;;;;;;;;5065090;28;20050;-68
2023/07/30 07:30:52;;;;;;;123.72;117.65;;;;;;;;;;5075491;28;20459;-68
2023/07/30 07:33:17;;;;;;;118.50;112.65;;;;;;;;;;5075839;28;20040;-68
2023/07/30 07:35:42;;;;;;;115.32;109.63;;;;;;;;;;5075814;28;20055;-69
2023/07/30 07:38:08;;;;;;;72.82;69.20;;;;;;;;;;5075269;28;20063;-71
2023/07/30 07:40:40;;;;;;;67.05;63.72;;;;;;;;;;5078184;28;20119;-73
2023/07/30 07:43:07;;;;;;;60.25;57.22;;;;;;;;;;5076084;28;20063;-72
2023/07/30 07:45:32;;;;;;;62.33;58.70;;;;;;;;;;5075110;28;20128;-70
2023/07/30 07:47:57;;;;;;;63.10;59.97;;;;;;;;;;5075801;28;20425;-71
2023/07/30 07:50:23;;;;;;;61.88;58.75;;;;;;;;;;5076056;28;20040;-71
2023/07/30 07:52:48;;;;;;;64.93;61.67;;;;;;;;;;5076788;28;20032;-72
2023/07/30 07:55:13;;;;;;;80.07;76.10;;;;;;;;;;5072577;28;20039;-72
2023/07/30 07:57:39;;;;;;;82.18;78.13;;;;;;;;;;5075656;28;20112;-72
2023/07/30 08:00:06;;;;;;;83.15;79.00;;;;;;;;;;5075127;28;20034;-72
2023/07/30 08:02:31;;;;;;;97.05;92.20;;;;;;;;;;5073840;28;20047;-70
2023/07/30 08:04:57;;;;;;;84.75;80.50;;;;;;;;;;5080037;28;20028;-70
2023/07/30 08:07:22;;;;;;;79.10;75.20;;;;;;;;;;5077437;28;20494;-70
2023/07/30 08:09:48;;;;;;;80.85;76.80;;;;;;;;;;5077611;28;20111;-70
2023/07/30 08:12:14;;;;;;;80.05;76.10;;;;;;;;;;5080515;28;20447;-70
2023/07/30 08:14:39;;;;;;;85.05;80.85;;;;;;;;;;5079169;28;20462;-71
2023/07/30 08:17:05;;;;;;;95.63;90.93;;;;;;;;;;5079604;28;20024;-71
2023/07/30 08:19:30;;;;;;;103.25;98.15;;;;;;;;;;5077748;28;20032;-71
2023/07/30 08:21:58;;;;;;;131.07;124.68;;;;;;;;;;5081270;28;20035;-70
2023/07/30 08:24:24;;;;;;;131.88;125.40;;;;;;;;;;5078454;28;20032;-69
2023/07/30 08:26:49;;;;;;;141.35;134.40;;;;;;;;;;5078065;28;20035;-71
2023/07/30 08:29:15;;;;;;;134.70;128.10;;;;;;;;;;5079890;28;20044;-71
2023/07/30 08:31:41;;;;;;;139.18;132.40;;;;;;;;;;5081589;28;20124;-71
2023/07/30 08:34:06;;;;;;;140.30;133.40;;;;;;;;;;5081737;28;20123;-70
2023/07/30 08:36:32;;;;;;;152.27;144.85;;;;;;;;;;5076358;28;20292;-69
2023/07/30 08:39:00;;;;;;;174.93;166.43;;;;;;;;;;5080229;28;20056;-70
2023/07/30 08:41:25;;;;;;;161.45;153.55;;;;;;;;;;5078079;28;20504;-70
2023/07/30 08:43:52;;;;;;;166.55;158.38;;;;;;;;;;5075627;28;20093;-69
2023/07/30 08:46:18;;;;;;;141.93;134.90;;;;;;;;;;5078917;28;20639;-69
2023/07/30 08:48:46;;;;;;;168.82;160.52;;;;;;;;;;5078577;28;20048;-70
2023/07/30 08:51:12;;;;;;;165.60;157.52;;;;;;;;;;5078217;28;20036;-70
2023/07/30 08:53:39;;;;;;;195.95;186.45;;;;;;;;;;5079886;28;20039;-70
2023/07/30 08:56:05;;;;;;;141.93;134.98;;;;;;;;;;5079830;28;20449;-69
2023/07/30 08:58:33;;;;;;;216.95;206.35;;;;;;;;;;5079575;28;20040;-70
2023/07/30 09:00:59;;;;;;;167.13;158.98;;;;;;;;;;5077582;28;20108;-70
2023/07/30 09:03:27;;;;;;;163.95;155.88;;;;;;;;;;5077635;28;20037;-70
2023/07/30 09:05:52;;;;;;;178.50;169.80;;;;;;;;;;5077816;28;20532;-71
2023/07/30 09:08:18;;;;;;;160.50;152.65;;;;;;;;;;5080040;28;20039;-70
2023/07/30 09:10:43;;;;;;;192.88;183.43;;;;;;;;;;5076396;28;20032;-71
2023/07/30 09:13:09;;;;;;;152.45;144.95;;;;;;;;;;5077340;28;20036;-70
2023/07/30 09:15:38;;;;;;;174.95;166.38;;;;;;;;;;5078169;28;20271;-69
2023/07/30 09:18:08;;;;;;;171.70;163.27;;;;;;;;;;5079352;28;20039;-71
2023/07/30 09:20:37;;;;;;;;;;;;;;;;;;5077379;28;20047;-71
2023/07/30 09:23:03;;;;;;;139.30;132.43;;;;;;;;;;5079323;28;20257;-70
2023/07/30 09:25:28;;;;;;;150.35;142.93;;;;;;;;;;5079032;28;20021;-70
2023/07/30 09:27:54;;;;;;;131.48;124.97;;;;;;;;;;5079606;28;20032;-66
2023/07/30 09:30:24;;;;;;;67.80;64.43;;;;;;;;;;5078095;28;20016;-70
2023/07/30 09:32:54;;;;;;;118.28;112.47;;;;;;;;;;5078289;28;20056;-70
2023/07/30 09:35:20;;;;;;;;;;;;;;;;;;5077751;28;20032;-70
2023/07/30 09:37:46;;;;;;;115.72;109.93;;;;;;;;;;5077646;28;19916;-70
2023/07/30 09:40:18;;;;;;;124.60;118.45;;;;;;;;;;5079269;28;20457;-70
2023/07/30 09:42:48;;;;;;;137.10;130.35;;;;;;;;;;5078189;28;20161;-69
2023/07/30 09:45:24;;;;;;;80.90;76.88;;;;;;;;;;5076289;28;20075;-70
2023/07/30 09:47:52;;;;;;;66.35;63.05;;;;;;;;;;5079496;28;20466;-70
2023/07/30 09:50:17;;;;;;;60.72;57.67;;;;;;;;;;5078081;28;20040;-70
2023/07/30 09:52:43;;;;;;;52.65;50.00;;;;;;;;;;5077391;28;20032;-69
2023/07/30 09:55:09;;;;;;;51.33;48.72;;;;;;;;;;5075096;28;20497;-70
2023/07/30 09:57:36;;;;;;;50.95;48.38;;;;;;;;;;5076683;28;20036;-68
2023/07/30 10:00:03;;;;;;;58.47;55.55;;;;;;;;;;5077737;28;20036;-70
2023/07/30 10:02:32;;;;;;;74.82;71.10;;;;;;;;;;5078092;28;20041;-70
2023/07/30 10:04:59;;;;;;;87.30;82.75;;;;;;;;;;5075205;28;20236;-69
2023/07/30 10:07:27;;;;;;;68.20;64.75;;;;;;;;;;5082058;28;20028;-71
2023/07/30 10:09:57;;;;;;;55.22;52.47;;;;;;;;;;5078921;28;20040;-71
2023/07/30 10:12:27;;;;;;;88.20;83.87;;;;;;;;;;5078597;28;20050;-71
2023/07/30 10:14:52;;;;;;;88.32;83.97;;;;;;;;;;5077332;28;20567;-69
2023/07/30 10:17:18;;;;;;;73.82;70.13;;;;;;;;;;5081057;28;20047;-69
2023/07/30 10:19:48;;;;;;;60.20;57.17;;;;;;;;;;5080447;28;20047;-69
2023/07/30 10:22:14;;;;;;;;;;;;;;;;;;5077416;28;20040;-70
2023/07/30 10:24:40;;;;;;;56.65;53.80;;;;;;;;;;5076772;28;20113;-69
2023/07/30 10:27:12;;;;;;;75.30;71.55;;;;;;;;;;5078252;28;20424;-70
2023/07/30 10:29:42;;;;;;;69.60;66.13;;;;;;;;;;5079285;28;20390;-70
2023/07/30 10:32:08;;;;;;;90.78;86.22;;;;;;;;;;5075320;28;20627;-66
2023/07/30 10:34:47;;;;;;;86.30;82.00;;;;;;;;;;5077354;28;20081;-68
2023/07/30 10:37:20;;;;;;;70.00;66.50;;;;;;;;;;5077499;28;20047;-71
2023/07/30 10:39:49;;;;;;;29.50;27.90;;;;;;;;;;5081781;28;20023;-71
2023/07/30 10:42:14;;;;;;;26.25;24.88;;;;;;;;;;5074827;28;20040;-69
2023/07/30 10:44:44;;;;;;;43.38;41.15;;;;;;;;;;5075194;28;20101;-69
2023/07/30 10:47:10;;;;;;;26.15;24.73;;;;;;;;;;5076219;28;20099;-68
2023/07/30 10:49:38;;;;;;;30.10;28.50;;;;;;;;;;5076062;28;20521;-68
2023/07/30 10:52:03;;;;;;;27.45;25.98;;;;;;;;;;5077035;28;20442;-68
2023/07/30 10:54:35;;;;;;;30.65;29.05;;;;;;;;;;5076575;28;20042;-70
2023/07/30 10:57:02;;;;;;;49.70;47.17;;;;;;;;;;5076760;28;20012;-67
2023/07/30 10:59:34;;;;;;;46.80;44.10;;;;;;;;;;5075432;28;20164;-68
2023/07/30 11:01:59;;;;;;;28.48;26.98;;;;;;;;;;5077291;28;20385;-68
2023/07/30 11:04:25;;;;;;;34.40;32.60;;;;;;;;;;5075959;28;20028;-67
2023/07/30 11:06:51;;;;;;;18.92;17.83;;;;;;;;;;5076150;28;20031;-69
2023/07/30 11:09:26;;;;;;;18.30;17.30;;;;;;;;;;5076666;28;20353;-68
2023/07/30 11:11:53;;;;;;;27.35;25.92;;;;;;;;;;5077085;28;20122;-67
2023/07/30 11:14:21;;;;;;;19.15;17.83;;;;;;;;;;5074581;28;20024;-69
2023/07/30 11:16:51;;;;;;;23.02;21.80;;;;;;;;;;5074939;28;20103;-69
2023/07/30 11:19:17;;;;;;;13.88;13.07;;;;;;;;;;5075246;28;20509;-70
2023/07/30 11:21:47;;;;;;;16.08;15.07;;;;;;;;;;5080174;28;20063;-68
2023/07/30 11:24:12;;;;;;;13.35;12.55;;;;;;;;;;5078108;28;20046;-70
2023/07/30 11:26:38;;;;;;;14.00;13.20;;;;;;;;;;5076170;28;20028;-69
2023/07/30 11:29:17;;;;;;;19.77;18.70;;;;;;;;;;5073706;28;20019;-71
2023/07/30 11:31:43;;;;;;;12.13;11.40;;;;;;;;;;5075030;28;20042;-70
2023/07/30 11:34:09;;;;;;;11.63;10.93;;;;;;;;;;5077424;28;20036;-70
2023/07/30 11:36:34;;;;;;;12.68;11.90;;;;;;;;;;5056926;28;20091;-70
2023/07/30 11:39:00;;;;;;;11.85;11.15;;;;;;;;;;5077233;28;20454;-70
2023/07/30 11:41:27;;;;;;;13.82;13.02;;;;;;;;;;5074617;28;20097;-69
2023/07/30 11:43:52;;;;;;;18.85;17.85;;;;;;;;;;5074886;28;20462;-67
2023/07/30 11:46:22;;;;;;;21.85;20.60;;;;;;;;;;5076306;28;20078;-68
2023/07/30 11:48:49;;;;;;;14.90;14.10;;;;;;;;;;5078942;28;20223;-69
2023/07/30 11:51:28;;;;;;;18.98;17.98;;;;;;;;;;5078332;28;20127;-74
2023/07/30 11:53:56;;;;;;;13.07;12.10;;;;;;;;;;5074450;28;20032;-71
2023/07/30 11:56:21;;;;;;;15.40;14.50;;;;;;;;;;5074934;28;20331;-74
2023/07/30 11:58:48;;;;;;;18.52;17.52;;;;;;;;;;5074248;28;20035;-73
2023/07/30 12:01:18;;;;;;;12.07;11.38;;;;;;;;;;5078959;28;20032;-72
2023/07/30 12:03:43;;;;;;;13.85;13.05;;;;;;;;;;5078656;28;20040;-72
2023/07/30 12:06:12;;;;;;;17.50;16.50;;;;;;;;;;5079019;28;20067;-72
2023/07/30 12:08:38;;;;;;;16.83;15.90;;;;;;;;;;5075749;28;20032;-75
2023/07/30 12:11:07;;;;;;;11.75;11.05;;;;;;;;;;5075693;28;20508;-74
2023/07/30 12:13:33;;;;;;;15.40;14.50;;;;;;;;;;5076352;28;20036;-76
2023/07/30 12:15:59;;;;;;;16.20;15.30;;;;;;;;;;5075578;28;20032;-73
2023/07/30 12:18:26;;;;;;;19.33;18.23;;;;;;;;;;5077462;28;20455;-77
2023/07/30 12:20:53;;;;;;;18.55;17.55;;;;;;;;;;5076041;28;20036;-75
2023/07/30 12:23:19;;;;;;;19.70;18.63;;;;;;;;;;5059775;28;20279;-75
2023/07/30 12:25:45;;;;;;;18.08;17.08;;;;;;;;;;5075906;28;20028;-74
2023/07/30 12:28:11;;;;;;;31.23;29.60;;;;;;;;;;5077653;28;20072;-72
2023/07/30 12:30:36;;;;;;;17.88;16.85;;;;;;;;;;5073265;28;20068;-75
2023/07/30 12:33:05;;;;;;;21.67;20.50;;;;;;;;;;5081856;28;20549;-73
2023/07/30 12:35:31;;;;;;;22.98;21.77;;;;;;;;;;5076289;28;20028;-76
2023/07/30 12:37:57;;;;;;;18.63;17.52;;;;;;;;;;5074882;28;20122;-76
2023/07/30 12:40:23;;;;;;;17.38;16.38;;;;;;;;;;5076366;28;20036;-76
2023/07/30 12:42:48;;;;;;;13.20;12.40;;;;;;;;;;5076392;28;20098;-76
2023/07/30 12:45:14;;;;;;;14.55;13.75;;;;;;;;;;5075374;28;20032;-73
2023/07/30 12:47:40;;;;;;;15.63;14.73;;;;;;;;;;5076622;28;20362;-70
2023/07/30 12:50:06;;;;;;;20.75;19.63;;;;;;;;;;5074533;28;20354;-70
2023/07/30 12:52:33;;;;;;;16.58;15.68;;;;;;;;;;5079388;28;20232;-72
2023/07/30 12:54:58;;;;;;;15.55;14.65;;;;;;;;;;5080164;28;20039;-69
2023/07/30 12:57:23;;;;;;;21.33;19.80;;;;;;;;;;5080631;28;20036;-70
2023/07/30 12:59:49;;;;;;;29.00;27.48;;;;;;;;;;5077645;28;20056;-70
2023/07/30 13:02:14;;;;;;;21.67;20.45;;;;;;;;;;5078401;28;20386;-72
2023/07/30 13:04:39;;;;;;;20.40;19.30;;;;;;;;;;5078892;28;20028;-68
2023/07/30 13:07:05;;;;;;;53.80;51.10;;;;;;;;;;5077482;28;20036;-68
2023/07/30 13:09:31;;;;;;;24.90;23.60;;;;;;;;;;5078052;28;20117;-72
2023/07/30 13:11:56;;;;;;;73.43;69.72;;;;;;;;;;5074782;28;20042;-72
2023/07/30 13:14:22;;;;;;;50.55;47.85;;;;;;;;;;5079575;28;20482;-67
2023/07/30 13:16:47;;;;;;;69.57;66.13;;;;;;;;;;5079508;28;20028;-68
2023/07/30 13:19:12;;;;;;;79.43;75.45;;;;;;;;;;5079587;28;20453;-68
2023/07/30 13:21:38;;;;;;;103.68;98.55;;;;;;;;;;5075622;28;20158;-70
2023/07/30 13:24:04;;;;;;;103.55;98.50;;;;;;;;;;5077532;28;20067;-69
2023/07/30 13:26:29;;;;;;;121.30;115.35;;;;;;;;;;5080917;28;20040;-67
2023/07/30 13:28:54;;;;;;;112.30;106.78;;;;;;;;;;5072833;28;20028;-69
2023/07/30 13:31:20;;;;;;;83.82;79.70;;;;;;;;;;5080544;28;20040;-70
2023/07/30 13:33:47;;;;;;;138.45;131.63;;;;;;;;;;5077827;28;20027;-70
2023/07/30 13:36:12;;;;;;;71.57;68.03;;;;;;;;;;5078131;28;20036;-70
2023/07/30 13:38:39;;;;;;;89.07;84.60;;;;;;;;;;5080898;28;20366;-69
2023/07/30 13:41:05;;;;;;;57.95;55.00;;;;;;;;;;5079225;28;20098;-68
2023/07/30 13:43:31;;;;;;;62.03;58.92;;;;;;;;;;5078943;28;20037;-70
2023/07/30 13:45:57;;;;;;;97.85;93.05;;;;;;;;;;5075660;28;20170;-70
2023/07/30 13:48:23;;;;;;;58.35;55.42;;;;;;;;;;5073901;28;20040;-67
2023/07/30 13:50:49;;;;;;;44.13;41.58;;;;;;;;;;5078382;28;20189;-69
2023/07/30 13:53:14;;;;;;;37.92;35.97;;;;;;;;;;5080198;28;20119;-68
2023/07/30 13:55:39;;;;;;;37.42;35.53;;;;;;;;;;5081321;28;20071;-68
2023/07/30 13:58:05;;;;;;;71.55;68.03;;;;;;;;;;5078394;28;20111;-68
2023/07/30 14:00:31;;;;;;;69.65;66.20;;;;;;;;;;5078922;28;20028;-69
2023/07/30 14:02:56;;;;;;;107.13;101.88;;;;;;;;;;5076957;28;20028;-69
2023/07/30 14:05:22;;;;;;;28.33;26.80;;;;;;;;;;5075870;28;20033;-69
2023/07/30 14:07:47;;;;;;;74.72;71.00;;;;;;;;;;5079439;28;20032;-69